Accueil
METAR-TAF:

METAR-TAF

Aéroports :

Base aérienne 120 Cazaux

Cazaux, France

latitude: 44-32N, longitude: 001-08W, altitude: 25 m

Observation

Le bulletin a été fait il y a 39 minutes, à 05:00 UTC
Vent 8 kt de nord
Température 14°C
Humidité 77%
Pression 1029 hPa
Visibilité 10 km ou plus
Nuages épars à une hauteur de 1700 ft
Ciel couvert à une hauteur de 3600 ft

METAR: LFBC 240500Z AUTO 01008KT 9999 SCT017 OVC036 14/10 Q1029 NOSIG

Heure: 07:39 (05:39 UTC)


TAF: absent

Observations et prévisions météorologiques de plus de 4000 aéroports (messages METAR et TAF).

Les stations disponibles sont représentées par des disques jaunes et rouges sur la carte.

Passer la souris dessus pour voir le nom de la station.

Cliquer dessus pour voir les observations et prévisions météorologiques.

Pour changer de carte: cliquez sur les boutons verts avec une croix noire pour zoomer, sur le bouton vert avec un tiret pour effectuer un zoom arrière, ou sur les flèches vertes pour les cartes adjacentes.


METAR-TAF: